createdAt,value
2018-04-16T00:01:46.088Z,14.00
2018-04-16T00:04:13.940Z,14.20
2018-04-16T00:06:41.401Z,14.20
2018-04-16T00:09:09.253Z,14.40
2018-04-16T00:11:36.747Z,14.40
2018-04-16T00:14:04.596Z,14.50
2018-04-16T00:16:32.460Z,14.40
2018-04-16T00:19:00.336Z,14.20
2018-04-16T00:21:28.197Z,14.10
2018-04-16T00:23:56.057Z,14.00
2018-04-16T00:26:23.559Z,14.00
2018-04-16T00:28:51.037Z,14.00
2018-04-16T00:31:18.518Z,14.10
2018-04-16T00:33:51.516Z,14.30
2018-04-16T00:36:25.119Z,14.20
2018-04-16T00:38:58.653Z,14.10
2018-04-16T00:41:31.798Z,14.10
2018-04-16T00:44:04.977Z,14.00
2018-04-16T00:46:38.141Z,13.90
2018-04-16T00:49:11.355Z,13.80
2018-04-16T00:51:44.519Z,13.80
2018-04-16T00:54:23.599Z,13.70
2018-04-16T00:56:57.261Z,13.60
2018-04-16T00:59:30.439Z,13.60
2018-04-16T01:05:14.360Z,13.30
2018-04-16T01:07:47.970Z,13.20
2018-04-16T01:10:21.517Z,13.10
2018-04-16T01:12:54.631Z,13.10
2018-04-16T01:15:27.871Z,13.10
2018-04-16T01:18:00.997Z,13.10
2018-04-16T01:20:34.144Z,13.00
2018-04-16T01:23:07.328Z,13.00
2018-04-16T01:25:40.311Z,12.90
2018-04-16T01:28:13.311Z,12.90
2018-04-16T01:30:46.291Z,12.80
2018-04-16T01:33:19.477Z,12.80
2018-04-16T01:35:52.587Z,12.80
2018-04-16T01:38:25.751Z,12.70
2018-04-16T01:40:59.305Z,12.60
2018-04-16T01:43:32.345Z,12.60
2018-04-16T01:46:05.491Z,12.60
2018-04-16T01:48:38.495Z,12.60
2018-04-16T01:51:11.637Z,12.60
2018-04-16T01:53:44.750Z,12.60
2018-04-16T01:56:17.873Z,12.60
2018-04-16T01:59:05.037Z,12.50
2018-04-16T02:01:38.040Z,12.40
2018-04-16T02:04:11.328Z,12.30
2018-04-16T02:06:44.531Z,12.20
2018-04-16T02:09:17.713Z,12.20
2018-04-16T02:11:50.898Z,12.20
2018-04-16T02:14:24.091Z,12.10
2018-04-16T02:16:57.271Z,12.00
2018-04-16T02:19:30.451Z,12.00
2018-04-16T02:22:03.604Z,11.90
2018-04-16T02:24:36.780Z,11.90
2018-04-16T02:27:09.960Z,11.80
2018-04-16T02:29:43.114Z,11.80
2018-04-16T02:32:16.279Z,11.90
2018-04-16T02:34:49.847Z,11.90
2018-04-16T02:37:23.036Z,11.90
2018-04-16T02:39:56.107Z,11.90
2018-04-16T02:42:29.285Z,11.90
2018-04-16T02:45:02.491Z,11.90
2018-04-16T02:47:35.691Z,11.70
2018-04-16T02:50:08.844Z,11.70
2018-04-16T02:52:41.935Z,11.60
2018-04-16T02:55:15.010Z,11.60
2018-04-16T02:57:48.051Z,11.60
2018-04-16T03:00:21.189Z,11.60
2018-04-16T03:02:54.349Z,11.60
2018-04-16T03:05:27.422Z,11.50
2018-04-16T03:08:00.614Z,11.50
2018-04-16T03:10:33.651Z,11.40
2018-04-16T03:13:06.869Z,11.40
2018-04-16T03:15:39.888Z,11.30
2018-04-16T03:18:13.066Z,11.30
2018-04-16T03:20:46.248Z,11.30
2018-04-16T03:23:19.435Z,11.20
2018-04-16T03:25:52.635Z,11.20
2018-04-16T03:28:25.836Z,11.30
2018-04-16T03:30:58.983Z,11.30
2018-04-16T03:33:32.011Z,11.30
2018-04-16T03:36:05.180Z,11.30
2018-04-16T03:38:38.340Z,11.30
2018-04-16T03:41:11.899Z,11.30
2018-04-16T03:43:45.068Z,11.30
2018-04-16T03:46:18.272Z,11.30
2018-04-16T03:48:51.463Z,11.30
2018-04-16T03:51:24.871Z,11.20
2018-04-16T03:53:52.919Z,11.20
2018-04-16T03:56:20.384Z,11.10
2018-04-16T03:58:47.844Z,11.00
2018-04-16T04:01:15.331Z,10.90
2018-04-16T04:03:42.755Z,10.90
2018-04-16T04:06:10.215Z,10.80
2018-04-16T04:08:37.676Z,10.70
2018-04-16T04:11:05.157Z,10.60
2018-04-16T04:13:32.612Z,10.60
2018-04-16T04:16:00.068Z,10.50
2018-04-16T04:18:27.531Z,10.40
2018-04-16T04:20:55.374Z,10.40
2018-04-16T04:23:34.560Z,10.30
2018-04-16T04:26:13.851Z,10.30
2018-04-16T04:28:53.014Z,10.30
2018-04-16T04:31:20.879Z,10.20
2018-04-16T04:33:48.740Z,10.20
2018-04-16T04:36:16.663Z,10.20
2018-04-16T04:38:44.125Z,10.20
2018-04-16T04:41:11.579Z,10.10
2018-04-16T04:43:39.047Z,10.20
2018-04-16T04:46:06.499Z,10.20
2018-04-16T04:48:33.963Z,10.20
2018-04-16T04:51:01.422Z,10.20
2018-04-16T04:53:28.884Z,10.30
2018-04-16T04:55:56.348Z,10.30
2018-04-16T04:58:23.804Z,10.50
2018-04-16T05:00:51.275Z,10.60
2018-04-16T05:03:19.156Z,10.60
2018-04-16T05:05:46.613Z,10.60
2018-04-16T05:08:14.620Z,10.70
2018-04-16T05:10:42.081Z,10.70
2018-04-16T05:13:09.540Z,10.70
2018-04-16T05:15:36.990Z,10.60
2018-04-16T05:18:04.432Z,10.60
2018-04-16T05:20:31.859Z,10.50
2018-04-16T05:22:59.303Z,10.50
2018-04-16T05:25:27.126Z,10.50
2018-04-16T05:27:54.563Z,10.50
2018-04-16T05:30:21.999Z,10.60
2018-04-16T05:32:49.432Z,10.60
2018-04-16T05:35:19.124Z,10.60
2018-04-16T05:37:47.531Z,10.70
2018-04-16T05:40:16.887Z,10.70
2018-04-16T05:42:48.261Z,10.60
2018-04-16T05:45:20.224Z,10.60
2018-04-16T05:47:50.323Z,10.60
2018-04-16T05:50:23.128Z,10.60
2018-04-16T05:52:53.576Z,10.60
2018-04-16T05:55:24.275Z,10.60
2018-04-16T06:00:31.785Z,10.70
2018-04-16T06:03:08.072Z,10.70
2018-04-16T06:05:40.102Z,10.70
2018-04-16T06:08:11.172Z,10.70
2018-04-16T06:10:47.784Z,10.70
2018-04-16T06:13:16.699Z,10.70
2018-04-16T06:15:49.264Z,10.70
2018-04-16T06:18:18.958Z,10.80
2018-04-16T06:20:47.605Z,10.80
2018-04-16T06:23:22.677Z,10.90
2018-04-16T06:26:02.195Z,10.90
2018-04-16T06:28:38.794Z,11.00
2018-04-16T06:31:10.460Z,11.20
2018-04-16T06:33:47.348Z,11.50
2018-04-16T06:36:21.745Z,11.80
2018-04-16T06:39:03.148Z,12.00
2018-04-16T06:41:36.888Z,12.10
2018-04-16T06:44:12.107Z,12.10
2018-04-16T06:46:55.906Z,12.30
2018-04-16T06:52:04.801Z,12.90
2018-04-16T06:57:26.817Z,12.90
2018-04-16T07:08:48.092Z,13.30
2018-04-16T07:11:15.646Z,13.40
2018-04-16T07:13:43.100Z,13.40
2018-04-16T07:16:10.580Z,13.40
2018-04-16T07:18:38.013Z,13.50
2018-04-16T07:21:05.507Z,13.50
2018-04-16T07:23:32.996Z,13.70
2018-04-16T07:26:03.254Z,13.70
2018-04-16T07:28:30.666Z,13.80
2018-04-16T07:30:58.495Z,13.90
2018-04-16T07:33:25.926Z,13.90
2018-04-16T07:35:53.368Z,14.00
2018-04-16T07:38:20.790Z,14.00
2018-04-16T07:40:48.627Z,14.10
2018-04-16T07:43:16.053Z,14.10
2018-04-16T07:45:43.875Z,14.30
2018-04-16T07:48:12.420Z,14.30
2018-04-16T07:50:40.135Z,14.40
2018-04-16T07:53:08.063Z,14.50
2018-04-16T07:55:35.512Z,14.60
2018-04-16T07:58:02.937Z,14.70
2018-04-16T08:00:30.376Z,14.80
2018-04-16T08:02:57.827Z,14.90
2018-04-16T08:05:25.639Z,15.00
2018-04-16T08:07:53.109Z,15.00
2018-04-16T08:10:20.536Z,15.00
2018-04-16T08:12:47.976Z,15.10
2018-04-16T08:15:15.615Z,15.20
2018-04-16T08:17:43.484Z,15.40
2018-04-16T08:20:11.350Z,15.30
2018-04-16T08:22:39.232Z,15.30
2018-04-16T08:25:07.078Z,15.40
2018-04-16T08:27:34.976Z,15.50
2018-04-16T08:30:02.454Z,15.50
2018-04-16T08:32:29.916Z,15.60
2018-04-16T08:34:57.396Z,15.70
2018-04-16T08:37:24.839Z,15.70
2018-04-16T08:39:52.548Z,15.80
2018-04-16T08:42:20.002Z,15.80
2018-04-16T08:44:47.430Z,15.90
2018-04-16T08:47:14.874Z,15.90
2018-04-16T08:49:42.303Z,15.90
2018-04-16T08:52:09.764Z,16.00
2018-04-16T08:54:40.314Z,16.20
2018-04-16T09:00:35.491Z,16.30
2018-04-16T09:15:18.182Z,16.60
2018-04-16T09:17:49.370Z,16.70
2018-04-16T09:20:19.992Z,16.70
2018-04-16T09:22:47.406Z,16.70
2018-04-16T09:25:22.107Z,16.90
2018-04-16T09:28:06.350Z,16.90
2018-04-16T09:30:52.531Z,17.00
2018-04-16T09:42:00.468Z,17.50
2018-04-16T09:44:28.667Z,17.50
2018-04-16T09:50:11.606Z,17.60
2018-04-16T10:04:11.842Z,17.80
2018-04-16T10:06:39.672Z,17.80
2018-04-16T10:09:07.107Z,17.80
2018-04-16T10:11:34.534Z,17.80
2018-04-16T10:14:01.975Z,17.90
2018-04-16T10:16:29.399Z,18.10
2018-04-16T10:18:56.869Z,18.30
2018-04-16T10:21:24.372Z,18.40
2018-04-16T10:23:51.836Z,18.40
2018-04-16T10:26:19.259Z,18.20
2018-04-16T10:28:46.691Z,18.10
2018-04-16T10:31:14.116Z,18.10
2018-04-16T10:33:41.587Z,18.20
2018-04-16T10:36:09.039Z,18.40
2018-04-16T10:38:36.479Z,18.60
2018-04-16T10:41:03.962Z,18.60
2018-04-16T10:43:31.373Z,18.70
2018-04-16T10:45:58.812Z,18.90
2018-04-16T10:48:26.644Z,19.00
2018-04-16T10:50:54.095Z,19.00
2018-04-16T10:53:21.543Z,19.10
2018-04-16T10:55:48.984Z,19.10
2018-04-16T10:58:16.436Z,19.10
2018-04-16T11:03:41.701Z,19.20
2018-04-16T11:28:57.992Z,19.60
2018-04-16T11:34:18.488Z,19.70
2018-04-16T11:36:45.925Z,19.60
2018-04-16T11:39:13.358Z,19.60
2018-04-16T11:41:40.783Z,19.70
2018-04-16T11:44:08.219Z,19.80
2018-04-16T11:46:36.087Z,19.90
2018-04-16T11:49:03.508Z,19.90
2018-04-16T11:51:30.932Z,19.90
2018-04-16T11:53:58.382Z,19.80
2018-04-16T11:56:25.799Z,19.50
2018-04-16T11:58:53.236Z,19.30
2018-04-16T12:01:20.676Z,19.20
2018-04-16T12:03:48.143Z,19.20
2018-04-16T12:06:15.595Z,19.20
2018-04-16T12:08:43.442Z,19.30
2018-04-16T12:11:10.869Z,19.30
2018-04-16T12:13:38.694Z,19.50
2018-04-16T12:16:06.147Z,19.50
2018-04-16T12:18:33.584Z,19.50
2018-04-16T12:21:01.006Z,19.50
2018-04-16T12:23:28.446Z,19.60
2018-04-16T12:25:56.271Z,19.60
2018-04-16T12:28:23.712Z,19.60
2018-04-16T12:30:51.147Z,19.80
2018-04-16T12:33:18.581Z,19.90
2018-04-16T12:35:46.404Z,20.50
2018-04-16T12:38:13.835Z,20.50
2018-04-16T12:40:41.267Z,20.40
2018-04-16T12:43:08.703Z,20.40
2018-04-16T12:45:36.133Z,20.40
2018-04-16T12:48:03.666Z,20.50
2018-04-16T12:50:31.031Z,20.40
2018-04-16T12:52:58.469Z,20.20
2018-04-16T12:55:25.953Z,20.20
2018-04-16T12:57:53.378Z,20.30
2018-04-16T13:00:21.201Z,20.10
2018-04-16T13:02:48.623Z,20.10
2018-04-16T13:05:16.063Z,20.20
2018-04-16T13:07:43.484Z,20.40
2018-04-16T13:10:11.315Z,20.60
2018-04-16T13:12:38.760Z,20.60
2018-04-16T13:15:06.210Z,20.70
2018-04-16T13:17:33.667Z,20.90
2018-04-16T13:20:01.132Z,20.80
2018-04-16T13:22:28.543Z,20.80
2018-04-16T13:24:56.383Z,20.80
2018-04-16T13:27:23.803Z,20.80
2018-04-16T13:29:51.248Z,20.40
2018-04-16T13:32:18.684Z,20.30
2018-04-16T13:34:46.123Z,20.40
2018-04-16T13:37:13.543Z,20.40
2018-04-16T13:39:40.971Z,20.40
2018-04-16T13:42:08.412Z,20.40
2018-04-16T13:44:36.240Z,20.80
2018-04-16T13:47:03.656Z,20.80
2018-04-16T13:49:31.107Z,21.10
2018-04-16T13:51:58.540Z,21.30
2018-04-16T13:54:25.967Z,21.50
2018-04-16T13:56:53.390Z,21.40
2018-04-16T13:59:20.872Z,21.40
2018-04-16T14:01:48.298Z,21.50
2018-04-16T14:04:15.727Z,21.60
2018-04-16T14:06:43.537Z,21.70
2018-04-16T14:09:10.967Z,21.70
2018-04-16T14:11:38.406Z,21.20
2018-04-16T14:14:05.846Z,21.10
2018-04-16T14:16:33.279Z,21.00
2018-04-16T14:19:00.715Z,21.00
2018-04-16T14:21:28.139Z,21.10
2018-04-16T14:23:55.579Z,21.20
2018-04-16T14:26:22.999Z,21.00
2018-04-16T14:28:50.443Z,21.00
2018-04-16T14:31:17.929Z,20.90
2018-04-16T14:33:45.356Z,20.90
2018-04-16T14:36:12.791Z,21.10
2018-04-16T14:38:40.248Z,21.20
2018-04-16T14:41:07.670Z,21.20
2018-04-16T14:43:35.494Z,21.20
2018-04-16T14:46:02.939Z,21.20
2018-04-16T14:48:30.374Z,21.10
2018-04-16T14:50:57.844Z,21.00
2018-04-16T14:53:25.266Z,21.00
2018-04-16T14:55:53.078Z,20.90
2018-04-16T14:58:20.503Z,20.90
2018-04-16T15:00:47.930Z,20.90
2018-04-16T15:03:15.755Z,21.00
2018-04-16T15:05:43.199Z,21.00
2018-04-16T15:08:10.627Z,20.90
2018-04-16T15:10:38.059Z,20.90
2018-04-16T15:13:05.480Z,20.90
2018-04-16T15:15:32.930Z,21.00
2018-04-16T15:18:00.353Z,21.10
2018-04-16T15:20:27.781Z,21.10
2018-04-16T15:22:55.211Z,21.10
2018-04-16T15:25:30.499Z,21.20
2018-04-16T15:27:58.644Z,21.20
2018-04-16T15:30:26.079Z,21.30
2018-04-16T15:32:53.847Z,21.30
2018-04-16T15:35:21.293Z,21.40
2018-04-16T15:37:48.723Z,21.50
2018-04-16T15:40:16.175Z,21.60
2018-04-16T15:42:43.628Z,21.60
2018-04-16T15:45:11.088Z,21.60
2018-04-16T15:47:38.569Z,21.60
2018-04-16T15:50:06.077Z,21.60
2018-04-16T15:52:33.528Z,21.60
2018-04-16T15:55:00.989Z,21.50
2018-04-16T15:57:28.444Z,21.50
2018-04-16T15:59:55.898Z,21.60
2018-04-16T16:02:23.319Z,21.70
2018-04-16T16:04:50.746Z,21.50
2018-04-16T16:07:18.167Z,21.20
2018-04-16T16:09:46.021Z,21.00
2018-04-16T16:12:13.446Z,21.00
2018-04-16T16:14:40.876Z,20.80
2018-04-16T16:17:08.299Z,20.70
2018-04-16T16:19:35.731Z,20.60
2018-04-16T16:22:03.164Z,20.50
2018-04-16T16:24:30.603Z,20.40
2018-04-16T16:26:58.023Z,20.40
2018-04-16T16:29:25.455Z,20.40
2018-04-16T16:31:52.953Z,20.30
2018-04-16T16:34:20.373Z,20.30
2018-04-16T16:36:47.800Z,20.40
2018-04-16T16:39:15.240Z,20.40
2018-04-16T16:41:42.726Z,20.40
2018-04-16T16:44:10.135Z,20.40
2018-04-16T16:46:37.971Z,20.30
2018-04-16T16:49:05.411Z,20.30
2018-04-16T16:51:32.919Z,20.30
2018-04-16T16:54:00.755Z,20.20
2018-04-16T16:56:28.184Z,20.20
2018-04-16T16:58:55.614Z,20.10
2018-04-16T17:01:23.090Z,20.00
2018-04-16T17:03:50.504Z,20.00
2018-04-16T17:06:18.333Z,19.80
2018-04-16T17:08:45.791Z,19.80
2018-04-16T17:11:13.247Z,19.70
2018-04-16T17:13:40.705Z,19.60
2018-04-16T17:16:08.107Z,19.50
2018-04-16T17:18:35.548Z,19.40
2018-04-16T17:21:02.997Z,19.30
2018-04-16T17:23:30.420Z,19.20
2018-04-16T17:25:57.857Z,19.00
2018-04-16T17:28:25.272Z,19.00
2018-04-16T17:30:53.117Z,18.90
2018-04-16T17:33:20.633Z,18.90
2018-04-16T17:35:48.063Z,18.90
2018-04-16T17:38:15.924Z,18.70
2018-04-16T17:40:43.747Z,18.50
2018-04-16T17:43:11.231Z,18.50
2018-04-16T17:45:38.682Z,18.30
2018-04-16T17:48:06.106Z,18.20
2018-04-16T17:50:33.547Z,18.00
2018-04-16T17:53:00.979Z,17.80
2018-04-16T17:55:28.437Z,17.60
2018-04-16T17:57:55.863Z,17.50
2018-04-16T18:00:23.375Z,17.30
2018-04-16T18:02:50.732Z,17.30
2018-04-16T18:05:18.256Z,17.10
2018-04-16T18:07:45.688Z,17.00
2018-04-16T18:10:13.129Z,17.00
2018-04-16T18:12:41.252Z,16.90
2018-04-16T18:15:08.719Z,16.90
2018-04-16T18:17:36.152Z,16.80
2018-04-16T18:20:03.995Z,16.70
2018-04-16T18:22:31.433Z,16.70
2018-04-16T18:24:58.867Z,16.70
2018-04-16T18:27:26.299Z,16.60
2018-04-16T18:29:54.137Z,16.70
2018-04-16T18:32:21.594Z,16.70
2018-04-16T18:34:49.012Z,16.70
2018-04-16T18:37:16.503Z,17.10
2018-04-16T18:39:43.923Z,17.20
2018-04-16T18:42:11.350Z,17.20
2018-04-16T18:44:38.791Z,17.10
2018-04-16T18:47:06.224Z,17.00
2018-04-16T18:52:38.031Z,16.90
2018-04-16T18:58:12.648Z,16.80
2018-04-16T19:00:40.062Z,16.80
2018-04-16T19:03:07.551Z,16.60
2018-04-16T19:05:35.023Z,16.60
2018-04-16T19:08:04.180Z,16.60
2018-04-16T19:10:36.590Z,16.50
2018-04-16T21:54:00.193Z,12.30
2018-04-16T21:56:28.220Z,12.30
2018-04-16T21:58:55.698Z,12.20
2018-04-16T22:03:58.532Z,12.20
2018-04-16T22:06:26.382Z,12.20
2018-04-16T22:08:54.556Z,12.10
2018-04-16T22:11:22.037Z,12.10
2018-04-16T22:13:49.917Z,12.10
2018-04-16T22:16:18.213Z,12.10
2018-04-16T22:18:47.966Z,11.90
2018-04-16T22:21:15.407Z,11.90
2018-04-16T22:23:44.051Z,11.80
2018-04-16T22:26:16.254Z,11.70
2018-04-16T22:28:44.455Z,11.50
2018-04-16T22:31:12.538Z,11.50
2018-04-16T22:33:39.984Z,11.40
2018-04-16T22:36:09.256Z,11.40
2018-04-16T22:38:36.720Z,11.30
2018-04-16T22:41:05.501Z,11.30
2018-04-16T22:43:34.482Z,11.30
2018-04-16T22:46:03.930Z,11.30
2018-04-16T22:48:32.717Z,11.30
2018-04-16T22:51:01.247Z,11.20
2018-04-16T22:53:31.767Z,11.20
2018-04-16T22:55:59.648Z,11.10
2018-04-16T22:58:29.331Z,11.00
2018-04-16T23:00:57.208Z,11.00
2018-04-16T23:03:25.627Z,11.00
2018-04-16T23:05:53.125Z,11.00
2018-04-16T23:08:22.269Z,10.90
2018-04-16T23:10:50.025Z,10.90
2018-04-16T23:13:18.733Z,10.80
2018-04-16T23:15:46.882Z,10.80
2018-04-16T23:18:14.392Z,10.80
2018-04-16T23:20:43.936Z,10.80
2018-04-16T23:23:11.453Z,10.80
2018-04-16T23:25:40.597Z,10.80
2018-04-16T23:28:08.455Z,10.80
2018-04-16T23:30:36.343Z,10.80
2018-04-16T23:33:03.983Z,10.80
2018-04-16T23:35:33.993Z,10.60
2018-04-16T23:38:02.175Z,10.50
2018-04-16T23:40:30.863Z,10.50
2018-04-16T23:42:58.729Z,10.50
2018-04-16T23:45:26.281Z,10.40
2018-04-16T23:47:53.805Z,10.30
2018-04-16T23:50:21.296Z,10.30
2018-04-16T23:52:49.189Z,10.20
2018-04-16T23:55:16.672Z,10.20
2018-04-16T23:57:44.162Z,10.10
